Time;durP1;ratioP1;P1;durP2;ratioP2;P2;SDS_P1;SDS_P2;PMS_P1;PMS_P2;Temp;Humidity;BMP_temperature;BMP_pressure;BME280_temperature;BME280_humidity;BME280_pressure;Samples;Min_cycle;Max_cycle;Signal;HPM_P1;HPM_P2
2022/02/21 00:01:05;;;;;;;1.07;0.70;;;25.90;58.60;;;;;;5076115;28;20437;-93
2022/02/21 00:03:32;;;;;;;1.87;1.20;;;25.90;58.60;;;;;;5075893;28;20453;-85
2022/02/21 00:06:00;;;;;;;1.40;1.10;;;25.90;58.50;;;;;;5075895;28;20445;-94
2022/02/21 00:08:27;;;;;;;1.37;1.17;;;25.80;58.50;;;;;;5075760;28;20915;-94
2022/02/21 00:10:53;;;;;;;1.53;1.10;;;25.80;58.50;;;;;;5075607;28;20461;-87
2022/02/21 00:13:20;;;;;;;1.63;1.17;;;25.80;58.50;;;;;;5075505;28;20441;-81
2022/02/21 00:15:47;;;;;;;1.33;1.20;;;25.80;58.50;;;;;;5075578;28;20448;-91
2022/02/21 00:18:14;;;;;;;1.00;0.80;;;25.80;58.50;;;;;;5075471;28;20445;-82
2022/02/21 00:20:40;;;;;;;1.67;0.97;;;25.80;58.50;;;;;;5075591;28;20554;-93
2022/02/21 00:23:09;;;;;;;1.07;0.83;;;25.80;58.50;;;;;;5075478;28;20441;-93
2022/02/21 00:25:36;;;;;;;1.30;0.83;;;25.70;58.50;;;;;;5075626;28;20448;-81
2022/02/21 00:28:02;;;;;;;1.10;0.80;;;25.80;58.50;;;;;;5075598;28;20445;-82
2022/02/21 00:30:29;;;;;;;1.20;1.00;;;25.70;58.50;;;;;;5075380;28;20444;-82
2022/02/21 00:32:56;;;;;;;1.20;0.83;;;25.70;58.50;;;;;;5074049;28;20448;-93
2022/02/21 00:35:23;;;;;;;1.50;1.00;;;25.70;58.50;;;;;;5075492;28;20540;-82
2022/02/21 00:37:50;;;;;;;1.20;0.80;;;25.70;58.50;;;;;;5075352;28;20844;-92
2022/02/21 00:40:18;;;;;;;1.40;0.90;;;25.70;58.40;;;;;;5075196;28;20488;-83
2022/02/21 00:42:45;;;;;;;1.10;0.90;;;25.70;58.50;;;;;;5075472;28;20441;-93
2022/02/21 00:45:12;;;;;;;1.33;1.07;;;25.60;58.40;;;;;;5075238;28;20443;-94
2022/02/21 00:47:40;;;;;;;1.10;0.80;;;25.70;58.50;;;;;;5074889;28;20444;-93
2022/02/21 00:50:09;;;;;;;1.57;0.80;;;25.70;58.40;;;;;;5075138;28;20441;-82
2022/02/21 00:52:36;;;;;;;1.50;1.10;;;25.70;58.40;;;;;;5075084;28;20436;-94
2022/02/21 00:55:03;;;;;;;1.80;1.00;;;25.60;58.30;;;;;;5074874;28;20444;-82
2022/02/21 00:57:31;;;;;;;1.23;0.90;;;25.60;58.40;;;;;;5074934;28;20473;-93
2022/02/21 00:59:58;;;;;;;1.20;0.87;;;25.60;58.40;;;;;;5075047;28;20491;-94
2022/02/21 01:02:24;;;;;;;1.10;0.83;;;25.60;58.40;;;;;;5074735;28;20436;-94
2022/02/21 01:04:51;;;;;;;1.57;1.33;;;25.60;58.30;;;;;;5074835;28;20445;-90
2022/02/21 01:07:18;;;;;;;1.40;0.97;;;25.60;58.30;;;;;;5074686;28;20468;-81
2022/02/21 01:09:45;;;;;;;1.67;0.90;;;25.60;58.40;;;;;;5074823;28;20811;-90
2022/02/21 01:12:11;;;;;;;1.57;0.93;;;25.60;58.30;;;;;;5074649;28;20429;-94
2022/02/21 01:14:39;;;;;;;1.80;1.03;;;25.50;58.30;;;;;;5074558;28;20445;-82
2022/02/21 01:17:06;;;;;;;1.50;0.97;;;25.50;58.30;;;;;;5074404;28;20436;-82
2022/02/21 01:19:33;;;;;;;1.90;1.00;;;25.60;58.30;;;;;;5074364;28;20486;-90
2022/02/21 01:22:01;;;;;;;2.17;0.90;;;25.50;58.30;;;;;;5074351;28;20445;-92
2022/02/21 01:24:28;;;;;;;1.20;0.90;;;25.50;58.30;;;;;;5074634;28;20795;-81
2022/02/21 01:26:55;;;;;;;1.20;1.00;;;25.60;58.30;;;;;;5074469;28;20444;-92
2022/02/21 01:29:21;;;;;;;1.20;0.97;;;25.50;58.20;;;;;;5074209;28;20445;-82
2022/02/21 01:31:50;;;;;;;1.20;0.80;;;25.60;58.30;;;;;;5074039;28;20476;-94
2022/02/21 01:34:16;;;;;;;1.23;0.97;;;25.50;58.20;;;;;;5074168;28;20436;-94
2022/02/21 01:36:43;;;;;;;1.10;0.90;;;25.50;58.20;;;;;;5074183;28;20447;-93
2022/02/21 01:39:10;;;;;;;1.20;0.90;;;25.50;58.20;;;;;;5073867;28;20485;-94
2022/02/21 01:41:37;;;;;;;1.07;0.77;;;25.50;58.30;;;;;;5074040;28;20950;-82
2022/02/21 01:44:06;;;;;;;1.07;0.80;;;25.50;58.20;;;;;;5073788;28;20451;-81
2022/02/21 01:46:33;;;;;;;1.90;1.10;;;25.50;58.10;;;;;;5074231;28;20532;-94
2022/02/21 01:49:01;;;;;;;1.20;1.07;;;25.50;58.10;;;;;;5073983;28;20928;-94
2022/02/21 01:51:29;;;;;;;1.10;0.80;;;25.50;58.10;;;;;;5074053;28;20444;-82
2022/02/21 01:53:56;;;;;;;1.60;1.00;;;25.50;58.10;;;;;;5073817;28;20452;-82
2022/02/21 01:56:24;;;;;;;1.20;0.80;;;25.50;58.10;;;;;;5073912;28;20445;-82
2022/02/21 01:58:51;;;;;;;1.00;0.80;;;25.50;58.10;;;;;;5073551;28;20459;-94
2022/02/21 02:01:18;;;;;;;1.10;0.90;;;25.40;58.10;;;;;;5073798;28;20445;-82
2022/02/21 02:03:46;;;;;;;1.00;0.80;;;25.40;58.10;;;;;;5073651;28;20441;-95
2022/02/21 02:06:14;;;;;;;1.13;0.80;;;25.40;58.00;;;;;;5073937;28;20484;-94
2022/02/21 02:08:41;;;;;;;1.20;0.80;;;25.40;57.90;;;;;;5073885;28;20444;-81
2022/02/21 02:11:08;;;;;;;1.47;1.10;;;25.50;58.00;;;;;;5073637;28;20528;-87
2022/02/21 02:13:35;;;;;;;1.03;0.83;;;25.40;58.00;;;;;;5073649;28;20436;-81
2022/02/21 02:16:02;;;;;;;1.10;0.80;;;25.40;58.00;;;;;;5073568;28;20445;-83
2022/02/21 02:18:28;;;;;;;2.90;0.90;;;25.40;57.90;;;;;;5073669;28;20444;-95
2022/02/21 02:20:55;;;;;;;2.30;1.13;;;25.40;57.90;;;;;;5073382;28;20484;-81
2022/02/21 02:23:24;;;;;;;1.00;0.70;;;25.40;57.90;;;;;;5073596;28;20931;-95
2022/02/21 02:25:50;;;;;;;1.93;0.90;;;25.40;57.90;;;;;;5073902;28;20539;-82
2022/02/21 02:28:17;;;;;;;1.27;1.13;;;25.40;57.90;;;;;;5073768;28;20443;-81
2022/02/21 02:30:44;;;;;;;1.40;0.87;;;25.30;57.80;;;;;;5073214;28;20447;-95
2022/02/21 02:33:11;;;;;;;1.10;0.90;;;25.30;57.80;;;;;;5073357;28;20444;-95
2022/02/21 02:35:38;;;;;;;1.33;1.03;;;25.40;57.80;;;;;;5073194;28;20444;-81
2022/02/21 02:38:04;;;;;;;1.20;0.70;;;25.40;57.80;;;;;;5073189;28;20439;-81
2022/02/21 02:40:34;;;;;;;1.30;0.83;;;25.30;57.80;;;;;;5073114;28;20491;-94
2022/02/21 02:43:01;;;;;;;1.27;0.93;;;25.30;57.80;;;;;;5073290;28;20443;-92
2022/02/21 02:45:28;;;;;;;1.20;0.80;;;25.30;57.80;;;;;;5073144;28;20436;-94
2022/02/21 02:47:55;;;;;;;1.63;1.13;;;25.30;57.90;;;;;;5073239;28;20518;-91
2022/02/21 02:50:22;;;;;;;1.20;0.80;;;25.20;57.80;;;;;;5073391;28;20441;-81
2022/02/21 02:52:49;;;;;;;1.50;0.93;;;25.30;57.80;;;;;;5073149;28;20441;-94
2022/02/21 02:55:16;;;;;;;1.50;0.90;;;25.30;57.80;;;;;;5073079;28;20448;-94
2022/02/21 02:57:44;;;;;;;1.20;0.80;;;25.20;57.70;;;;;;5076945;28;20443;-94
2022/02/21 03:00:14;;;;;;;1.47;1.00;;;25.20;57.70;;;;;;5076936;28;20998;-93
2022/02/21 03:02:40;;;;;;;1.80;1.03;;;25.20;57.70;;;;;;5077054;28;20842;-81
2022/02/21 03:05:08;;;;;;;1.43;0.97;;;25.20;57.70;;;;;;5076883;28;20441;-81
2022/02/21 03:07:35;;;;;;;1.20;0.80;;;25.20;57.70;;;;;;5076992;28;20437;-87
2022/02/21 03:10:02;;;;;;;1.30;0.90;;;25.10;57.70;;;;;;5076669;28;20475;-82
2022/02/21 03:12:28;;;;;;;1.20;1.00;;;25.10;57.80;;;;;;5076795;28;20448;-81
2022/02/21 03:14:57;;;;;;;1.20;1.00;;;25.10;57.80;;;;;;5076529;28;20440;-94
2022/02/21 03:17:24;;;;;;;1.20;0.90;;;25.10;57.70;;;;;;5076545;28;20440;-81
2022/02/21 03:19:51;;;;;;;1.50;0.90;;;25.10;57.70;;;;;;5076850;28;20519;-82
2022/02/21 03:22:18;;;;;;;3.07;1.00;;;25.10;57.80;;;;;;5076534;28;20931;-94
2022/02/21 03:24:45;;;;;;;1.67;0.97;;;25.10;57.80;;;;;;5076669;28;20448;-94
2022/02/21 03:27:11;;;;;;;1.30;0.80;;;24.90;57.80;;;;;;5076821;28;20451;-95
2022/02/21 03:29:38;;;;;;;1.30;0.80;;;25.00;57.80;;;;;;5076534;28;20445;-94
2022/02/21 03:32:08;;;;;;;1.10;0.80;;;25.00;57.80;;;;;;5076622;28;20472;-81
2022/02/21 03:34:35;;;;;;;1.20;0.90;;;25.00;57.80;;;;;;5076484;28;20943;-84
2022/02/21 03:37:01;;;;;;;1.50;1.23;;;25.00;57.70;;;;;;5076275;28;20436;-84
2022/02/21 03:39:28;;;;;;;1.77;0.90;;;24.90;57.70;;;;;;5075958;28;20456;-81
2022/02/21 03:41:55;;;;;;;1.87;1.10;;;24.90;57.80;;;;;;5076365;28;20437;-82
2022/02/21 03:44:22;;;;;;;1.20;0.90;;;24.90;57.70;;;;;;5076219;28;20445;-81
2022/02/21 03:46:49;;;;;;;1.00;0.87;;;24.90;57.80;;;;;;5076199;28;20447;-94
2022/02/21 03:49:17;;;;;;;1.10;0.70;;;24.90;57.70;;;;;;5076309;28;20927;-82
2022/02/21 03:51:43;;;;;;;1.47;0.80;;;24.80;57.70;;;;;;5075880;28;20448;-94
2022/02/21 03:54:10;;;;;;;1.37;0.80;;;24.80;57.70;;;;;;5076383;28;20464;-94
2022/02/21 03:56:37;;;;;;;2.07;0.80;;;24.80;57.70;;;;;;5076502;28;20441;-94
2022/02/21 03:59:04;;;;;;;1.37;0.90;;;24.80;57.80;;;;;;5076110;28;20472;-81
2022/02/21 04:01:31;;;;;;;1.33;0.90;;;24.80;57.80;;;;;;5075869;28;20491;-93
2022/02/21 04:03:58;;;;;;;1.20;0.93;;;24.70;57.70;;;;;;5075788;28;20459;-94
2022/02/21 04:06:26;;;;;;;1.93;1.00;;;24.80;57.80;;;;;;5075772;28;20445;-82
2022/02/21 04:08:52;;;;;;;1.53;1.20;;;24.70;57.70;;;;;;5075770;28;20445;-81
2022/02/21 04:11:19;;;;;;;1.30;0.80;;;24.70;57.70;;;;;;5075910;28;20801;-86
2022/02/21 04:13:46;;;;;;;1.50;0.90;;;24.60;57.70;;;;;;5075642;28;20440;-82
2022/02/21 04:16:13;;;;;;;1.50;0.80;;;24.60;57.70;;;;;;5075750;28;20429;-94
2022/02/21 04:18:39;;;;;;;1.20;0.90;;;24.60;57.80;;;;;;5075824;28;20437;-94
2022/02/21 04:21:06;;;;;;;1.73;1.00;;;24.60;57.80;;;;;;5075624;28;20488;-82
2022/02/21 04:23:35;;;;;;;1.03;0.80;;;24.60;57.70;;;;;;5075610;28;20444;-94
2022/02/21 04:26:01;;;;;;;1.30;0.90;;;24.60;57.80;;;;;;5075629;28;20439;-81
2022/02/21 04:28:28;;;;;;;1.30;1.00;;;24.60;57.70;;;;;;5075509;28;20939;-91
2022/02/21 04:30:55;;;;;;;1.20;0.90;;;24.60;57.70;;;;;;5075239;28;20995;-81
2022/02/21 04:33:22;;;;;;;1.00;0.80;;;24.60;57.60;;;;;;5075861;28;20433;-81
2022/02/21 04:35:48;;;;;;;1.10;0.90;;;24.60;57.60;;;;;;5075174;28;20451;-94
2022/02/21 04:38:15;;;;;;;1.33;0.90;;;24.60;57.70;;;;;;5075212;28;20451;-81
2022/02/21 04:40:44;;;;;;;1.60;1.00;;;24.60;57.60;;;;;;5075144;28;20492;-94
2022/02/21 04:43:10;;;;;;;2.33;0.83;;;24.70;57.70;;;;;;5075253;28;20437;-81
2022/02/21 04:45:37;;;;;;;1.60;0.90;;;24.50;57.60;;;;;;5075641;28;20433;-82
2022/02/21 04:48:04;;;;;;;1.53;1.30;;;24.50;57.50;;;;;;5075281;28;20441;-82
2022/02/21 04:50:32;;;;;;;1.27;1.03;;;24.50;57.50;;;;;;5071542;28;20992;-94
2022/02/21 04:53:01;;;;;;;1.30;1.03;;;24.50;57.50;;;;;;5067001;28;20473;-81
2022/02/21 04:55:28;;;;;;;1.93;1.00;;;24.50;57.50;;;;;;5065534;28;20437;-82
2022/02/21 04:58:00;;;;;;;1.07;0.73;;;24.50;57.50;;;;;;5070562;28;20499;-82
2022/02/21 05:00:27;;;;;;;2.47;1.13;;;24.50;57.50;;;;;;5070917;28;20472;-95
2022/02/21 05:02:54;;;;;;;1.60;0.93;;;24.50;57.50;;;;;;5075572;28;20444;-95
2022/02/21 05:05:21;;;;;;;2.27;1.00;;;24.50;57.50;;;;;;5074992;28;20447;-82
2022/02/21 05:07:47;;;;;;;1.40;1.00;;;24.50;57.50;;;;;;5074682;28;20453;-96
2022/02/21 05:10:15;;;;;;;1.40;0.90;;;24.50;57.50;;;;;;5074852;28;20463;-82
2022/02/21 05:12:42;;;;;;;1.30;1.00;;;24.40;57.40;;;;;;5074671;28;20447;-83
2022/02/21 05:15:11;;;;;;;1.40;1.20;;;24.50;58.10;;;;;;5074854;28;20448;-95
2022/02/21 05:17:39;;;;;;;1.40;0.90;;;24.40;57.50;;;;;;5074535;28;20448;-96
2022/02/21 05:20:08;;;;;;;1.10;0.80;;;24.40;57.50;;;;;;5073734;28;20444;-82
2022/02/21 05:22:35;;;;;;;1.30;0.90;;;24.40;57.50;;;;;;5074523;28;20503;-95
2022/02/21 05:25:03;;;;;;;1.60;1.20;;;24.50;57.50;;;;;;5074563;28;20444;-92
2022/02/21 05:27:33;;;;;;;1.33;1.07;;;24.50;57.50;;;;;;5074298;28;20915;-95
2022/02/21 05:29:59;;;;;;;1.03;0.80;;;24.50;57.40;;;;;;5074444;28;20516;-81
2022/02/21 05:32:28;;;;;;;1.30;0.90;;;24.50;57.40;;;;;;5074279;28;20472;-82
2022/02/21 05:34:54;;;;;;;1.20;1.00;;;24.50;57.40;;;;;;5074287;28;20456;-94
2022/02/21 05:37:21;;;;;;;1.33;0.70;;;24.60;57.30;;;;;;5073959;28;20440;-95
2022/02/21 05:39:48;;;;;;;2.27;1.20;;;24.60;57.30;;;;;;5073982;28;20467;-95
2022/02/21 05:42:15;;;;;;;1.00;0.70;;;24.60;57.20;;;;;;5074171;28;20485;-82
2022/02/21 05:44:42;;;;;;;1.20;0.90;;;24.60;57.10;;;;;;5074134;28;20441;-84
2022/02/21 05:47:09;;;;;;;1.30;0.93;;;24.70;57.10;;;;;;5074308;28;20448;-82
2022/02/21 05:49:37;;;;;;;1.40;0.83;;;24.70;57.10;;;;;;5073875;28;20452;-82
2022/02/21 05:52:05;;;;;;;1.20;0.87;;;24.70;57.00;;;;;;5073978;28;20437;-94
2022/02/21 05:54:31;;;;;;;2.23;1.00;;;24.70;57.10;;;;;;5073661;28;20928;-92
2022/02/21 05:56:58;;;;;;;1.30;1.10;;;24.70;57.00;;;;;;5073839;28;20428;-82
2022/02/21 05:59:25;;;;;;;1.20;0.90;;;24.70;57.50;;;;;;5074223;28;20460;-82
2022/02/21 06:01:52;;;;;;;3.10;0.90;;;24.70;57.50;;;;;;5073714;28;20507;-82
2022/02/21 06:04:19;;;;;;;1.37;1.20;;;24.70;56.90;;;;;;5073899;28;20798;-82
2022/02/21 06:06:47;;;;;;;1.57;0.90;;;24.80;56.90;;;;;;5073773;28;20515;-82
2022/02/21 06:09:13;;;;;;;1.27;1.00;;;24.70;56.90;;;;;;5073919;28;20465;-95
2022/02/21 06:11:40;;;;;;;1.30;0.90;;;24.70;56.80;;;;;;5073793;28;20440;-94
2022/02/21 06:14:07;;;;;;;1.80;1.00;;;24.80;56.90;;;;;;5073558;28;20924;-94
2022/02/21 06:16:34;;;;;;;1.97;1.17;;;24.80;56.80;;;;;;5073726;28;20464;-95
2022/02/21 06:19:01;;;;;;;1.10;0.80;;;24.80;56.80;;;;;;5073648;28;20760;-82
2022/02/21 06:21:28;;;;;;;1.17;0.90;;;24.80;56.70;;;;;;5073779;28;20484;-82
2022/02/21 06:23:56;;;;;;;1.20;0.90;;;24.80;56.70;;;;;;5073679;28;20445;-82
2022/02/21 06:26:23;;;;;;;1.20;1.00;;;24.80;56.60;;;;;;5073481;28;20531;-82
2022/02/21 06:28:50;;;;;;;1.23;0.70;;;24.80;56.60;;;;;;5073385;28;20448;-82
2022/02/21 06:31:17;;;;;;;1.97;1.10;;;24.80;56.60;;;;;;5072168;28;20480;-82
2022/02/21 06:33:43;;;;;;;1.37;1.03;;;24.80;57.10;;;;;;5073525;28;20441;-82
2022/02/21 06:36:10;;;;;;;1.93;0.90;;;24.90;56.60;;;;;;5073412;28;20923;-94
2022/02/21 06:38:39;;;;;;;1.10;0.80;;;24.80;56.50;;;;;;5073559;28;20439;-95
2022/02/21 06:41:07;;;;;;;1.17;0.93;;;24.80;56.50;;;;;;5073517;28;20483;-95
2022/02/21 06:43:34;;;;;;;1.10;0.87;;;24.90;56.50;;;;;;5073279;28;20436;-96
2022/02/21 06:46:01;;;;;;;1.47;1.27;;;24.90;56.50;;;;;;5073092;28;20444;-93
2022/02/21 06:48:28;;;;;;;1.30;1.00;;;24.90;56.40;;;;;;5068325;28;20445;-82
2022/02/21 06:50:55;;;;;;;1.07;0.73;;;25.00;56.40;;;;;;5073210;28;20440;-81
2022/02/21 06:53:22;;;;;;;1.83;0.90;;;24.90;56.40;;;;;;5072902;28;20441;-88
2022/02/21 06:55:48;;;;;;;1.40;1.00;;;25.00;56.90;;;;;;5072975;28;20930;-82
2022/02/21 06:58:17;;;;;;;1.40;0.87;;;25.00;56.30;;;;;;5073001;28;20444;-94
2022/02/21 07:00:43;;;;;;;1.90;1.10;;;25.00;56.30;;;;;;5072459;28;20475;-85
2022/02/21 07:03:10;;;;;;;1.30;1.03;;;25.00;56.30;;;;;;5071210;28;20510;-82
2022/02/21 07:05:39;;;;;;;1.47;1.03;;;25.00;56.70;;;;;;5070928;28;20931;-82
2022/02/21 07:08:06;;;;;;;1.00;0.80;;;25.00;56.40;;;;;;5073188;28;20474;-81
2022/02/21 07:10:33;;;;;;;1.37;0.90;;;25.00;56.30;;;;;;5072617;28;20460;-95
2022/02/21 07:13:00;;;;;;;1.10;0.90;;;25.00;56.40;;;;;;5072991;28;20445;-96
2022/02/21 07:15:28;;;;;;;5.13;1.13;;;25.00;56.50;;;;;;5072688;28;20936;-84
2022/02/21 07:17:55;;;;;;;2.00;1.10;;;25.00;56.40;;;;;;5072653;28;20950;-81
2022/02/21 07:20:21;;;;;;;1.57;1.00;;;25.00;56.30;;;;;;5073253;28;20444;-81
2022/02/21 07:22:48;;;;;;;1.10;0.90;;;25.00;56.40;;;;;;5073248;28;20495;-81
2022/02/21 07:25:16;;;;;;;1.33;0.90;;;25.10;56.50;;;;;;5075389;28;20445;-85
2022/02/21 07:27:44;;;;;;;2.70;1.00;;;25.00;56.40;;;;;;5076603;28;20449;-96
2022/02/21 07:30:13;;;;;;;1.17;0.90;;;25.00;56.50;;;;;;5078865;28;20437;-93
2022/02/21 07:32:42;;;;;;;1.20;1.00;;;25.00;56.50;;;;;;5076644;28;20476;-81
2022/02/21 07:35:10;;;;;;;1.00;0.80;;;25.00;56.40;;;;;;5069188;28;21088;-94
2022/02/21 07:37:39;;;;;;;2.90;0.93;;;25.00;56.50;;;;;;5070146;28;20803;-82
2022/02/21 07:40:06;;;;;;;1.20;1.00;;;25.10;56.60;;;;;;5076610;28;20449;-91
2022/02/21 07:42:33;;;;;;;1.20;0.90;;;25.10;56.60;;;;;;5075735;28;20492;-80
2022/02/21 07:45:00;;;;;;;1.50;0.90;;;25.10;56.50;;;;;;5077064;28;20803;-93
2022/02/21 07:47:27;;;;;;;1.20;1.00;;;25.10;56.50;;;;;;5075566;28;20432;-81
2022/02/21 07:49:55;;;;;;;1.57;1.10;;;25.10;56.50;;;;;;5069338;28;20437;-88
2022/02/21 07:52:21;;;;;;;1.23;0.90;;;25.20;56.40;;;;;;5074087;28;20928;-81
2022/02/21 07:54:48;;;;;;;1.10;0.90;;;25.20;56.30;;;;;;5074557;28;20433;-82
2022/02/21 07:57:15;;;;;;;1.57;1.17;;;25.20;56.40;;;;;;5069359;28;20433;-92
2022/02/21 07:59:43;;;;;;;1.60;0.90;;;25.20;56.30;;;;;;5077898;28;20443;-94
2022/02/21 08:02:10;;;;;;;1.40;1.10;;;25.20;56.30;;;;;;5077637;28;20530;-94
2022/02/21 08:04:37;;;;;;;1.13;0.80;;;25.20;56.40;;;;;;5076721;28;20441;-87
2022/02/21 08:07:05;;;;;;;5.73;1.43;;;25.20;56.20;;;;;;5071645;28;20445;-82
2022/02/21 08:09:34;;;;;;;1.23;1.00;;;25.30;53.50;;;;;;5076837;28;20461;-92
2022/02/21 08:12:04;;;;;;;1.30;1.10;;;25.40;55.00;;;;;;5076582;28;20932;-92
2022/02/21 08:14:31;;;;;;;2.43;1.10;;;25.30;55.90;;;;;;5077169;28;20433;-92
2022/02/21 08:16:58;;;;;;;1.30;1.10;;;25.40;56.10;;;;;;5076761;28;20451;-92
2022/02/21 08:19:26;;;;;;;8.03;3.73;;;25.30;56.00;;;;;;5076821;28;20503;-92
2022/02/21 08:21:53;;;;;;;24.50;11.90;;;25.30;56.20;;;;;;5076691;28;20484;-94
2022/02/21 08:24:21;;;;;;;42.10;16.50;;;25.30;56.40;;;;;;5075501;28;20448;-81
2022/02/21 08:26:48;;;;;;;60.93;20.57;;;25.40;56.30;;;;;;5075818;28;20479;-93
2022/02/21 08:29:15;;;;;;;45.03;18.07;;;25.40;56.70;;;;;;5075495;28;20456;-82
2022/02/21 08:31:44;;;;;;;54.63;23.20;;;25.30;56.50;;;;;;5076266;28;20830;-94
2022/02/21 08:34:11;;;;;;;74.67;26.53;;;25.40;56.50;;;;;;5076801;28;20449;-94
2022/02/21 08:36:38;;;;;;;66.80;27.33;;;25.40;57.20;;;;;;5077296;28;20453;-94
2022/02/21 08:39:05;;;;;;;68.17;24.20;;;25.40;57.20;;;;;;5076515;28;20465;-94
2022/02/21 08:41:33;;;;;;;61.67;25.10;;;25.40;57.20;;;;;;5071811;28;20526;-90
2022/02/21 08:44:01;;;;;;;40.10;16.63;;;25.40;57.10;;;;;;5068225;28;20458;-91
2022/02/21 08:46:28;;;;;;;34.40;13.40;;;25.30;52.60;;;;;;5072792;28;20441;-91
2022/02/21 08:48:56;;;;;;;43.00;17.20;;;25.20;52.20;;;;;;5068003;28;20440;-91
2022/02/21 08:51:23;;;;;;;46.40;17.67;;;25.10;53.30;;;;;;5071901;28;20448;-90
2022/02/21 08:53:50;;;;;;;45.33;18.33;;;25.10;54.20;;;;;;5074796;28;20449;-91
2022/02/21 08:56:17;;;;;;;49.17;18.90;;;25.20;55.10;;;;;;5075960;28;20905;-90
2022/02/21 08:58:46;;;;;;;36.87;16.97;;;25.30;55.40;;;;;;5075304;28;20471;-91
2022/02/21 09:01:13;;;;;;;44.03;18.20;;;25.20;55.40;;;;;;5073070;28;20441;-90
2022/02/21 09:03:41;;;;;;;36.40;16.60;;;25.20;55.40;;;;;;5074043;28;20490;-91
2022/02/21 09:06:08;;;;;;;33.57;14.17;;;25.20;55.40;;;;;;5066922;28;20461;-82
2022/02/21 09:08:35;;;;;;;40.78;16.70;;;25.20;55.50;;;;;;5067365;28;20990;-91
2022/02/21 09:11:02;;;;;;;30.50;14.50;;;25.40;55.40;;;;;;5074682;28;20190;-80
2022/02/21 09:13:30;;;;;;;38.00;14.83;;;25.30;55.40;;;;;;5074608;28;20441;-88
2022/02/21 09:15:58;;;;;;;42.07;15.73;;;25.50;55.60;;;;;;5074529;28;20441;-89
2022/02/21 09:18:25;;;;;;;36.63;14.70;;;25.50;55.20;;;;;;5074455;28;20519;-89
2022/02/21 09:20:53;;;;;;;40.23;16.37;;;25.50;55.40;;;;;;5074391;28;20441;-81
2022/02/21 09:23:20;;;;;;;30.67;14.03;;;25.50;55.30;;;;;;5074396;28;20477;-80
2022/02/21 09:25:47;;;;;;;31.33;13.57;;;25.50;55.30;;;;;;5074911;28;20923;-81
2022/02/21 09:28:14;;;;;;;28.20;13.93;;;25.60;55.10;;;;;;5066294;28;20472;-93
2022/02/21 09:30:41;;;;;;;32.13;14.60;;;25.80;55.00;;;;;;5071967;28;20441;-93
2022/02/21 09:33:10;;;;;;;31.30;13.70;;;25.90;55.00;;;;;;5074454;28;20874;-80
2022/02/21 09:35:36;;;;;;;28.00;12.73;;;26.00;54.90;;;;;;5076024;28;20456;-92
2022/02/21 09:38:03;;;;;;;19.47;8.57;;;26.00;54.80;;;;;;5080218;28;20931;-90
2022/02/21 09:40:31;;;;;;;19.90;7.20;;;26.10;54.10;;;;;;5080108;28;20433;-90
2022/02/21 09:42:59;;;;;;;22.33;9.60;;;26.00;53.70;;;;;;5074447;28;20895;-84
2022/02/21 09:45:28;;;;;;;20.10;9.10;;;26.00;54.80;;;;;;5074172;28;20499;-82
2022/02/21 09:47:57;;;;;;;22.80;9.90;;;25.90;54.20;;;;;;5073525;28;20441;-80
2022/02/21 09:50:27;;;;;;;22.70;9.77;;;25.90;54.70;;;;;;5073383;28;20441;-81
2022/02/21 09:53:00;;;;;;;16.30;9.37;;;25.90;54.80;;;;;;5073400;28;20437;-81
2022/02/21 09:55:27;;;;;;;20.60;9.10;;;25.90;54.70;;;;;;5073749;28;20932;-92
2022/02/21 09:57:54;;;;;;;23.70;10.20;;;26.20;54.60;;;;;;5073737;28;20582;-92
2022/02/21 10:00:21;;;;;;;16.47;8.87;;;26.20;54.40;;;;;;5073807;28;20791;-92
2022/02/21 10:02:50;;;;;;;18.23;9.87;;;26.30;54.50;;;;;;5073490;28;20485;-81
2022/02/21 10:05:22;;;;;;;25.03;9.70;;;26.30;54.50;;;;;;5073357;28;20440;-92
2022/02/21 10:07:50;;;;;;;18.43;9.57;;;26.20;54.60;;;;;;5073867;28;20831;-91
2022/02/21 10:10:19;;;;;;;18.57;9.50;;;26.20;54.70;;;;;;5073475;28;20473;-83
2022/02/21 10:12:49;;;;;;;22.83;10.50;;;26.20;54.70;;;;;;5073381;28;20447;-92
2022/02/21 10:15:18;;;;;;;26.80;10.00;;;26.20;54.90;;;;;;5073528;28;20437;-81
2022/02/21 10:17:46;;;;;;;18.20;8.40;;;26.10;55.00;;;;;;5073408;28;20437;-92
2022/02/21 10:20:13;;;;;;;17.50;8.90;;;26.00;54.90;;;;;;5073550;28;20441;-81
2022/02/21 10:22:41;;;;;;;22.40;8.80;;;26.00;54.90;;;;;;5073466;28;20480;-82
2022/02/21 10:25:21;;;;;;;19.13;9.27;;;26.00;55.00;;;;;;5073353;28;20854;-86
2022/02/21 10:27:47;;;;;;;12.23;7.20;;;26.00;55.10;;;;;;5073394;28;20437;-82
2022/02/21 10:30:17;;;;;;;15.77;7.87;;;25.90;55.00;;;;;;5073756;28;20911;-92
2022/02/21 10:32:47;;;;;;;18.00;7.60;;;25.90;55.00;;;;;;5073705;28;20473;-91
2022/02/21 10:35:16;;;;;;;17.03;7.80;;;25.80;55.60;;;;;;5073554;28;20866;-80
2022/02/21 10:37:45;;;;;;;13.93;7.33;;;25.80;55.10;;;;;;5073890;28;20524;-82
2022/02/21 10:40:14;;;;;;;13.97;7.87;;;25.80;55.30;;;;;;5074165;28;20461;-81
2022/02/21 10:42:44;;;;;;;12.70;7.50;;;25.80;55.20;;;;;;5073930;28;20483;-86
2022/02/21 10:45:13;;;;;;;15.50;8.03;;;25.80;55.30;;;;;;5073672;28;20446;-92
2022/02/21 10:47:41;;;;;;;15.57;8.07;;;25.70;55.30;;;;;;5073483;28;20494;-86
2022/02/21 10:50:10;;;;;;;14.13;7.20;;;25.60;55.30;;;;;;5077808;28;20441;-84
2022/02/21 10:52:39;;;;;;;21.93;7.13;;;25.60;55.40;;;;;;5079834;28;20488;-95
2022/02/21 10:55:09;;;;;;;13.70;6.97;;;25.60;55.50;;;;;;5073558;28;20528;-85
2022/02/21 10:57:47;;;;;;;13.03;7.03;;;25.50;55.40;;;;;;5073613;28;20508;-93
2022/02/21 11:00:15;;;;;;;15.90;7.73;;;25.50;56.00;;;;;;5074148;28;20427;-96
2022/02/21 11:02:43;;;;;;;12.57;6.57;;;25.50;55.50;;;;;;5075335;28;20537;-96
2022/02/21 11:05:12;;;;;;;10.70;6.07;;;25.50;55.60;;;;;;5073230;28;20436;-95
2022/02/21 11:07:42;;;;;;;10.97;6.27;;;25.50;55.60;;;;;;5063652;28;20441;-81
2022/02/21 11:10:10;;;;;;;20.53;6.60;;;25.60;55.70;;;;;;5072279;28;20838;-89
2022/02/21 11:12:39;;;;;;;12.40;6.23;;;25.50;55.60;;;;;;5072668;28;20445;-89
2022/02/21 11:15:08;;;;;;;11.50;5.80;;;25.50;55.60;;;;;;5071949;28;20465;-80
2022/02/21 11:17:37;;;;;;;10.10;6.03;;;25.50;55.60;;;;;;5074573;28;20436;-90
2022/02/21 11:20:05;;;;;;;11.00;5.53;;;25.50;55.60;;;;;;5076288;28;20432;-81
2022/02/21 11:22:34;;;;;;;9.60;5.77;;;25.50;55.70;;;;;;5061953;28;20495;-91
2022/02/21 11:25:09;;;;;;;11.70;6.30;;;25.50;55.60;;;;;;5077209;28;20444;-84
2022/02/21 11:27:49;;;;;;;12.57;5.57;;;25.50;55.60;;;;;;5075594;28;20501;-90
2022/02/21 11:30:22;;;;;;;11.00;6.27;;;25.50;55.70;;;;;;5076103;28;20953;-89
2022/02/21 11:33:05;;;;;;;8.77;5.40;;;25.50;55.60;;;;;;5036510;28;20462;-93
2022/02/21 11:35:32;;;;;;;9.03;5.50;;;25.50;55.60;;;;;;5034018;28;20984;-86
2022/02/21 11:38:16;;;;;;;9.90;5.03;;;25.50;55.60;;;;;;5037136;28;20792;-95
2022/02/21 11:40:54;;;;;;;9.07;6.37;;;25.60;55.60;;;;;;5043340;28;20476;-96
2022/02/21 11:43:32;;;;;;;9.57;4.80;;;25.50;55.60;;;;;;5036891;28;20493;-91
2022/02/21 11:46:03;;;;;;;9.20;5.07;;;25.50;55.70;;;;;;5041317;28;20453;-96
2022/02/21 11:48:55;;;;;;;8.70;4.73;;;25.50;55.80;;;;;;5036813;28;20435;-95
2022/02/21 11:51:27;;;;;;;10.00;5.50;;;25.50;55.80;;;;;;5036861;28;20446;-93
2022/02/21 11:53:54;;;;;;;6.50;4.27;;;25.50;55.80;;;;;;5036850;28;20446;-90
2022/02/21 11:57:00;;;;;;;8.17;4.53;;;25.40;55.70;;;;;;5035603;28;20449;-91
2022/02/21 11:59:27;;;;;;;9.73;4.47;;;25.50;55.70;;;;;;5037059;28;20537;-91
2022/02/21 12:02:09;;;;;;;6.50;3.57;;;25.50;55.70;;;;;;5036000;28;20453;-93
2022/02/21 12:05:03;;;;;;;6.80;3.90;;;25.60;54.50;;;;;;5039302;28;20434;-96
2022/02/21 12:07:35;;;;;;;10.33;4.50;;;25.50;55.60;;;;;;5015396;28;20450;-94
2022/02/21 12:10:21;;;;;;;6.70;4.40;;;25.50;55.60;;;;;;5040482;28;20457;-94
2022/02/21 12:13:02;;;;;;;7.90;4.23;;;25.50;55.50;;;;;;5035464;28;20438;-89
2022/02/21 12:15:33;;;;;;;8.47;4.47;;;25.50;55.60;;;;;;5037645;28;20490;-88
2022/02/21 12:18:43;;;;;;;6.17;4.03;;;25.50;55.50;;;;;;5036276;28;20953;-95
2022/02/21 12:21:14;;;;;;;6.00;4.30;;;25.60;55.80;;;;;;5033572;28;20510;-94
2022/02/21 12:24:05;;;;;;;7.77;4.60;;;25.50;55.90;;;;;;5040033;28;20471;-84
2022/02/21 12:26:35;;;;;;;8.77;4.40;;;25.50;56.00;;;;;;5048062;28;20430;-91
2022/02/21 12:29:09;;;;;;;6.73;4.27;;;25.50;56.20;;;;;;5069792;22;20475;-96
2022/02/21 12:31:36;;;;;;;5.47;3.60;;;25.50;56.20;;;;;;5104558;28;20423;-95
2022/02/21 12:34:05;;;;;;;5.93;3.80;;;25.60;56.40;;;;;;5095867;28;20446;-92
2022/02/21 12:36:36;;;;;;;7.27;4.17;;;25.50;56.30;;;;;;5095590;28;20486;-94
2022/02/21 12:39:05;;;;;;;7.30;4.13;;;25.70;56.50;;;;;;5084145;28;20453;-92
2022/02/21 12:41:33;;;;;;;7.10;5.20;;;25.50;56.40;;;;;;5076212;28;20429;-91
2022/02/21 12:44:02;;;;;;;10.80;4.77;;;25.50;56.60;;;;;;5075203;28;20476;-88
2022/02/21 12:46:32;;;;;;;8.07;5.17;;;25.50;56.80;;;;;;5075581;28;20495;-91
2022/02/21 12:49:00;;;;;;;8.30;4.33;;;25.50;56.80;;;;;;5078134;28;20440;-95